Pagina principale
METAR-TAF:

METAR-TAF

Aeroporti :

El-Tor, Egitto

latitudine: 28-14N, longitudine: 032-37E, altezza: 21 m

Osservazione

Il bollettino è stato emesso 2 ore e 50 minuti fa, alle 11:00 UTC
Vento 28 kt da nord-ovest
Temperature 26°C
Umidità 37%
Pressione 1016 hPa
Visibilità: 6000 m

METAR: HETR 061100Z 32028KT 6000 NSC 26/10 Q1016

Ora: 15:50 (13:50 UTC)

Previsione

Il bollettino è stato emesso 2 ore e 50 minuti fa, alle 11:00 UTC
Previsione valida dal 06 alle 12 UTC al 07 alle 18 UTC
Vento 18 kt da ovest/nord-ovest con raffiche fino a 28 kt
Visibilità: 6000 m

TAF: HETR 061100Z 0612/0718 30018G28KT 6000 NSC

Osservazioni e previsioni meteorologiche di più di 4000 aeroporti (messaggi METAR e TAF).

Le stazioni disponibili sono rappresentate dai dischi gialli e rossi sulla carta.

Puntare il mouse per vedere il nome della stazione.

Clicca sopra per visualizzare le osservazioni e previsioni meteorologiche.

Per cambiare la mappa : fare clic sui pulsanti verdi con una croce nera per ingrandire, il pulsante verde con un trattino per diminuire, o sulla freccia verde per le mappe adiacenti.


METAR-TAF: